Football.biz
F 19/10/19 CA Itajai 0-0 CEC Santa Catarina
F 19/10/19 Juventude RSU19 0-0 Atletico Pr Paranaen
F 19/10/19 Criciuma U19 0-0 Gremio FBPA U19
F 19/10/19 Tubarao U19 0-0 Figueirense U19
F 19/10/19 Zumbi EC U23 0-0 Clube Sociedade Espo
F 19/10/19 Figueirense XI 0-0 Avai XI
F 17/08/19 Arturzinho 0-0 Paraiba do Sul
F 25/10/19 Picos 2-1 EC Timon1
F 24/10/19 America MG (w) 3-0 Esporte Clube Futgol2
F 24/10/19 3B da Amazonia ï¼1 5-0 Internacional(w1
F 24/10/19 Carajas EC2 1-1 Tuna Luso11
F 24/10/19 Resende-RJ2 0-1 Buzios2
F 24/10/19 St.Cristobal RJ4 1-1 Ceres/RJ4
F 24/10/19 Acao RJ3 5-0 Tomazinho FC2
F 23/10/19 Ferroviario U192 0-1 Ceara U192
F 23/10/19 Avai XI1 0-2 Atletico Tubarao SC1
F 23/10/19 FC Atlético Ceare2 0-1 Floresta EC U193
F 21/10/19 EC Timon4 3-2 AA Corisabba3
F 21/10/19 Novo Hamburgo U196 2-3 Avai U193
F 20/10/19 Uniao Inhumas1 2-5 Inhumas3
F 20/10/19 Atletico Tubarao SC2 0-0 Marcilio Dias SC2
F 20/10/19 Acao RJ13 0-1 Buzios3
F 20/10/19 Visao Celeste3 1-1 CE Forca e Luz RN2
F 20/10/19 Paraiba do Sul2 1-2 Brasileirinho RJ4
F 20/10/19 Paduano RJ2 0-0 Ceres/RJ2
F 20/10/19 Sao Cristovao2 3-0 CAAC Brasil FC1
F 20/10/19 Atletico Mineiro (W)1 0-2 Cruzeiro MG (W)4
F 20/10/19 Criciuma Women4 1-0 Chapecoense (w)3
F 19/10/19 Santa Marina Tandil2 0-0 Gimnasia Jujuy1
F 18/10/19 Picos4 3-1 Oeirense12
F 18/10/19 Raca SC1 0-2 ASEEV2
F 17/10/19 CE Forca e Luz RN4 3-0 Atletico Potengi1
F 17/10/19 Teresopolis3 1-1 Paraiba do Sul13
F 17/10/19 Buzios3 3-2 Arturzinho4
F 17/10/19 Legiao FC2 0-0 Brasilia1
F 17/10/19 Atletico Carioca3 4-1 CF Sao Jose RJ3
F 17/10/19 Resende-RJ2 1-2 Acao RJ5
F 15/10/19 Parana PR/U194 1-2 Tubarao U1914
F 14/10/19 Arturzinho2 1-3 EC Resende4
F 14/10/19 Paraiba do Sul2 0-0 Atletico Carioca2
F 13/10/19 AE Jataiense1 1-1 Morrinhos FC
F 13/10/19 Brasileirinho RJ3 2-1 Teresopolis3
F 13/10/19 Paduano RJ1 1-1 Campo Grande CE2
F 13/10/19 CEC Santa Catarina2 1-1 AA Orleans4
F 13/10/19 Tomazinho FC1 1-3 Buzios3
F 12/10/19 ASEEV1 2-1 Pires do Rio FC3
F 12/10/19 Sao Paulo Crystal FC1 0-0 Sport Lagoa Seca2
F 12/10/19 CA Carlos Renaux2 1-1 CA Itajai16
F 11/10/19 Raca SC1 0-1 Goiatuba
F 11/10/19 Avai U195 2-1 Coritiba U193
F 17/05/17 Altos/PI3 2-2 Parnahyba PI2
F 10/05/17 River PI6 1-3 Altos/PI4
F 06/05/17 River PI15 2-2 Piaui(PI)15
F 05/05/17 Altos/PI4 1-0 4 de Julho2
F 28/04/17 Altos/PI12 1-2 River PI2
F 24/04/17 EC Flamengo PI14 0-0 Altos/PI3
F 20/04/17 Altos/PI3 2-2 Parnahyba PI2
F 19/04/17 River PI1 2-1 EC Flamengo PI1